Time;durP1;ratioP1;P1;durP2;ratioP2;P2;SDS_P1;SDS_P2;PMS_P1;PMS_P2;Temp;Humidity;BMP_temperature;BMP_pressure;BME280_temperature;BME280_humidity;BME280_pressure;Samples;Min_cycle;Max_cycle;Signal;HPM_P1;HPM_P2
2022/04/22 00:01:23;;;;;;;23.90;14.23;;;;;;;10.62;65.68;100848.50;5022656;28;20045;-65
2022/04/22 00:03:49;;;;;;;22.55;12.52;;;;;;;10.54;65.68;100847.97;5022589;28;20052;-66
2022/04/22 00:06:14;;;;;;;24.30;14.30;;;;;;;10.49;65.95;100843.22;5019944;28;20040;-65
2022/04/22 00:08:39;;;;;;;24.20;13.95;;;;;;;10.33;66.91;100846.53;5022012;28;20052;-66
2022/04/22 00:13:50;;;;;;;20.75;10.27;;;;;;;10.59;66.02;100848.13;5021189;28;20540;-65
2022/04/22 00:16:17;;;;;;;25.38;14.80;;;;;;;10.77;65.34;100839.03;5022855;28;20030;-65
2022/04/22 00:18:43;;;;;;;19.98;11.27;;;;;;;10.98;64.19;100835.75;5022664;28;20037;-66
2022/04/22 00:21:09;;;;;;;26.05;15.60;;;;;;;10.68;65.64;100840.41;5023267;28;20031;-62
2022/04/22 00:23:34;;;;;;;18.98;10.13;;;;;;;10.54;66.29;100840.59;5022394;28;20030;-66
2022/04/22 00:25:59;;;;;;;25.83;15.68;;;;;;;10.39;66.79;100829.16;5023236;28;20026;-65
2022/04/22 00:28:24;;;;;;;20.40;9.93;;;;;;;10.72;65.40;100841.63;5017848;28;20087;-66
2022/04/22 00:30:50;;;;;;;25.15;13.85;;;;;;;10.55;66.32;100842.28;5022459;28;20033;-66
2022/04/22 00:33:16;;;;;;;27.95;14.20;;;;;;;10.25;67.91;100842.22;5021143;28;20009;-65
2022/04/22 00:35:41;;;;;;;26.80;18.05;;;;;;;10.00;68.87;100834.00;5023095;28;20041;-65
2022/04/22 00:38:07;;;;;;;29.98;17.05;;;;;;;10.34;67.74;100834.50;5022742;28;20053;-65
2022/04/22 00:40:33;;;;;;;26.33;17.38;;;;;;;9.98;69.44;100835.28;5022270;28;20026;-65
2022/04/22 00:42:59;;;;;;;28.23;15.95;;;;;;;10.02;69.32;100837.34;5021371;28;20151;-65
2022/04/22 00:45:24;;;;;;;26.40;17.15;;;;;;;10.06;69.29;100829.53;5022358;28;20142;-65
2022/04/22 00:47:49;;;;;;;20.55;11.55;;;;;;;10.33;68.14;100830.91;5023403;28;20481;-66
2022/04/22 00:50:15;;;;;;;23.83;12.85;;;;;;;10.19;68.59;100823.91;5022377;28;20053;-66
2022/04/22 00:52:41;;;;;;;25.67;14.13;;;;;;;10.41;67.81;100823.44;5021664;28;20040;-65
2022/04/22 00:55:08;;;;;;;27.45;16.98;;;;;;;10.62;67.13;100812.81;5022379;28;20087;-65
2022/04/22 00:57:33;;;;;;;27.77;18.55;;;;;;;10.32;68.21;100821.00;5019809;28;20449;-65
2022/04/22 00:59:59;;;;;;;32.40;18.30;;;;;;;10.14;69.25;100819.09;5025647;28;20141;-65
2022/04/22 01:02:24;;;;;;;29.98;18.15;;;;;;;10.17;69.14;100814.19;5028829;28;20033;-65
2022/04/22 01:10:19;;;;;;;31.17;17.50;;;;;;;10.26;68.82;100812.84;5027505;28;20179;-65
2022/04/22 01:12:44;;;;;;;31.50;19.08;;;;;;;9.98;70.33;100811.44;5029166;28;20104;-65
2022/04/22 01:15:09;;;;;;;23.52;13.75;;;;;;;10.26;69.21;100810.94;5047523;22;20049;-64
2022/04/22 01:17:35;;;;;;;27.30;14.50;;;;;;;10.07;70.13;100809.25;5049443;28;20037;-65
2022/04/22 01:20:01;;;;;;;28.75;14.18;;;;;;;9.98;70.35;100803.19;5046201;28;20032;-65
2022/04/22 01:22:27;;;;;;;35.25;20.13;;;;;;;9.96;70.97;100801.78;5046532;28;20025;-65
2022/04/22 01:25:01;;;;;;;35.80;19.83;;;;;;;10.16;70.50;100802.38;5048852;28;20475;-65
2022/04/22 01:27:29;;;;;;;28.20;16.65;;;;;;;9.70;71.94;100791.91;5046533;28;20414;-65
2022/04/22 01:29:56;;;;;;;28.20;16.92;;;;;;;10.10;70.07;100795.06;5048094;28;20028;-64
2022/04/22 01:32:22;;;;;;;34.15;20.90;;;;;;;9.87;71.48;100791.09;5048557;28;20422;-65
2022/04/22 01:34:47;;;;;;;34.70;20.98;;;;;;;9.79;71.86;100794.16;5046099;28;20028;-66
2022/04/22 01:37:12;;;;;;;32.78;19.95;;;;;;;10.01;70.89;100789.03;5047504;28;20028;-66
2022/04/22 01:39:38;;;;;;;27.38;15.77;;;;;;;9.84;71.65;100787.97;5048910;28;20021;-65
2022/04/22 01:42:04;;;;;;;32.47;17.13;;;;;;;9.81;71.96;100786.50;5048163;28;20062;-65
2022/04/22 01:44:29;;;;;;;38.65;20.83;;;;;;;9.61;72.95;100788.63;5047228;28;20716;-65
2022/04/22 01:46:55;;;;;;;32.55;17.10;;;;;;;9.65;72.64;100786.28;5047414;28;20036;-65
2022/04/22 01:49:20;;;;;;;35.58;21.73;;;;;;;9.73;72.44;100781.34;5048265;28;20479;-65
2022/04/22 01:51:46;;;;;;;34.28;21.92;;;;;;;9.39;74.29;100793.69;5047827;28;20100;-65
2022/04/22 01:54:12;;;;;;;30.38;17.17;;;;;;;9.85;72.16;100785.00;5049049;28;20060;-65
2022/04/22 01:56:37;;;;;;;36.97;21.63;;;;;;;9.40;74.23;100795.34;5046755;28;20090;-65
2022/04/22 01:59:02;;;;;;;34.53;20.42;;;;;;;9.51;73.86;100786.38;5049027;28;20079;-65
2022/04/22 02:01:27;;;;;;;38.78;20.88;;;;;;;9.47;74.04;100787.06;5048338;28;20036;-65
2022/04/22 02:03:53;;;;;;;35.22;21.10;;;;;;;9.32;74.51;100787.41;5048150;28;20655;-65
2022/04/22 02:06:18;;;;;;;34.25;21.15;;;;;;;9.31;74.76;100780.25;5047182;28;20041;-65
2022/04/22 02:08:44;;;;;;;36.33;21.60;;;;;;;9.21;75.40;100788.13;5046306;28;20025;-65
2022/04/22 02:11:09;;;;;;;36.65;20.58;;;;;;;9.22;75.54;100781.59;5045474;28;20475;-62
2022/04/22 02:13:36;;;;;;;36.05;20.40;;;;;;;9.29;74.99;100794.19;5045323;28;20028;-65
2022/04/22 02:16:03;;;;;;;34.53;20.52;;;;;;;9.47;74.19;100778.84;5044119;28;20411;-65
2022/04/22 02:18:29;;;;;;;21.83;11.85;;;;;;;9.65;73.21;100789.84;5042831;28;20442;-65
2022/04/22 02:20:54;;;;;;;29.10;17.70;;;;;;;9.69;73.39;100785.59;5042209;28;20021;-65
2022/04/22 02:23:19;;;;;;;28.42;15.93;;;;;;;9.48;74.16;100783.25;5031922;28;20083;-65
2022/04/22 02:25:44;;;;;;;32.72;19.95;;;;;;;9.34;74.63;100788.03;5025575;28;20021;-65
2022/04/22 02:30:53;;;;;;;19.35;11.98;;;;;;;9.48;74.28;100789.59;5044962;28;20565;-65
2022/04/22 02:33:19;;;;;;;32.47;20.02;;;;;;;9.24;75.79;100793.19;5043241;28;20057;-65
2022/04/22 02:35:44;;;;;;;24.40;14.15;;;;;;;9.46;74.68;100785.38;5043610;28;20075;-65
2022/04/22 02:38:10;;;;;;;26.92;14.63;;;;;;;9.43;74.78;100783.09;5044219;28;20033;-65
2022/04/22 02:46:03;;;;;;;18.88;10.45;;;;;;;9.39;74.95;100773.66;5045001;28;20068;-66
2022/04/22 02:48:28;;;;;;;27.23;18.00;;;;;;;9.13;76.12;100774.72;5043118;28;20543;-65
2022/04/22 02:50:53;;;;;;;21.45;11.88;;;;;;;9.56;74.45;100769.25;5044539;28;20037;-65
2022/04/22 02:53:19;;;;;;;22.10;13.32;;;;;;;9.23;75.79;100766.84;5045035;28;20040;-65
2022/04/22 02:55:48;;;;;;;24.67;14.88;;;;;;;9.07;76.87;100762.72;5044256;28;20658;-65
2022/04/22 02:58:14;;;;;;;18.48;10.80;;;;;;;9.39;75.41;100754.47;5043543;28;20445;-65
2022/04/22 03:00:39;;;;;;;25.13;16.80;;;;;;;9.25;75.86;100761.97;5045937;28;20025;-65
2022/04/22 03:03:05;;;;;;;23.50;15.32;;;;;;;9.13;76.42;100761.03;5044316;28;20063;-65
2022/04/22 03:05:30;;;;;;;18.45;13.02;;;;;;;9.50;74.55;100753.72;5046642;28;20020;-65
2022/04/22 03:07:55;;;;;;;20.67;13.05;;;;;;;8.98;77.12;100750.41;5044008;28;20028;-65
2022/04/22 03:10:20;;;;;;;15.95;10.00;;;;;;;9.19;76.28;100757.38;5043815;28;20055;-65
2022/04/22 03:12:46;;;;;;;16.48;9.82;;;;;;;9.09;76.33;100752.41;5043539;28;20079;-65
2022/04/22 03:15:11;;;;;;;18.60;11.20;;;;;;;9.12;76.69;100757.41;5044135;28;20620;-65
2022/04/22 03:17:36;;;;;;;17.38;11.77;;;;;;;9.03;77.16;100745.91;5042615;28;20021;-65
2022/04/22 03:20:02;;;;;;;19.00;12.68;;;;;;;9.04;76.84;100753.06;5044267;28;20113;-64
2022/04/22 03:22:27;;;;;;;20.23;15.13;;;;;;;8.87;77.95;100756.56;5043388;28;20037;-64
2022/04/22 03:24:52;;;;;;;21.58;15.50;;;;;;;8.89;77.76;100762.69;5043571;28;20131;-65
2022/04/22 03:27:18;;;;;;;15.27;10.07;;;;;;;8.78;78.31;100762.34;5040929;28;20032;-65
2022/04/22 03:29:43;;;;;;;19.65;11.68;;;;;;;8.92;77.60;100756.75;5043877;28;20032;-65
2022/04/22 03:32:10;;;;;;;13.27;9.93;;;;;;;8.82;78.21;100766.31;5043772;28;20094;-65
2022/04/22 03:34:36;;;;;;;17.67;10.97;;;;;;;8.74;78.54;100754.78;5043872;28;20133;-65
2022/04/22 03:37:01;;;;;;;19.20;15.32;;;;;;;8.77;78.37;100755.19;5043665;28;20028;-65
2022/04/22 03:39:26;;;;;;;20.00;13.25;;;;;;;8.62;79.20;100751.03;5042949;28;20467;-65
2022/04/22 03:41:51;;;;;;;18.17;14.07;;;;;;;8.60;79.28;100750.44;5042511;28;20112;-65
2022/04/22 03:44:17;;;;;;;19.40;15.65;;;;;;;8.59;79.48;100749.59;5039359;28;20083;-65
2022/04/22 03:46:42;;;;;;;18.80;10.80;;;;;;;8.82;78.03;100746.31;5043163;28;20471;-65
2022/04/22 03:49:09;;;;;;;19.83;13.57;;;;;;;8.67;79.10;100743.00;5044162;28;20025;-65
2022/04/22 03:51:35;;;;;;;18.63;11.65;;;;;;;8.65;78.88;100740.50;5042581;28;20479;-65
2022/04/22 03:54:01;;;;;;;20.63;14.90;;;;;;;8.42;80.17;100737.50;5042420;28;20060;-65
2022/04/22 03:59:10;;;;;;;22.45;16.45;;;;;;;8.56;79.54;100731.69;5044789;28;20044;-65
2022/04/22 04:01:35;;;;;;;20.95;14.82;;;;;;;8.44;80.22;100738.94;5044674;28;20037;-65
2022/04/22 04:04:01;;;;;;;17.23;10.70;;;;;;;8.72;78.71;100730.38;5042614;28;20709;-65
2022/04/22 04:06:26;;;;;;;18.73;12.05;;;;;;;8.66;78.94;100736.69;5041941;28;20422;-65
2022/04/22 04:17:04;;;;;;;27.52;19.98;;;;;;;8.39;80.40;100727.00;5043826;28;20056;-65
2022/04/22 04:24:57;;;;;;;30.95;21.52;;;;;;;8.31;81.31;100731.63;5042866;28;20110;-65
2022/04/22 04:27:23;;;;;;;22.25;14.25;;;;;;;8.39;81.12;100735.19;5042155;28;20041;-66
2022/04/22 04:29:48;;;;;;;33.60;20.40;;;;;;;8.18;81.95;100742.63;5043081;28;20074;-65
2022/04/22 04:32:13;;;;;;;23.35;14.60;;;;;;;8.60;80.06;100732.09;5042626;28;20032;-66
2022/04/22 04:34:39;;;;;;;30.98;18.58;;;;;;;8.44;81.29;100724.44;5040880;28;20029;-65
2022/04/22 04:37:07;;;;;;;35.65;21.27;;;;;;;8.44;81.15;100724.44;5043010;28;20055;-65
2022/04/22 04:39:32;;;;;;;36.65;21.58;;;;;;;8.39;81.69;100724.25;5041767;28;20048;-65
2022/04/22 04:41:58;;;;;;;48.70;25.02;;;;;;;8.15;82.97;100723.91;5042198;28;20041;-65
2022/04/22 04:44:24;;;;;;;41.55;25.02;;;;;;;8.24;83.12;100725.34;5039922;28;20086;-65
2022/04/22 04:46:49;;;;;;;39.58;23.27;;;;;;;8.34;82.52;100716.66;5041815;28;20113;-65
2022/04/22 04:49:14;;;;;;;45.83;26.60;;;;;;;8.23;83.39;100736.50;5040726;28;20156;-65
2022/04/22 04:51:40;;;;;;;42.60;21.25;;;;;;;8.47;82.49;100727.56;5042038;28;20033;-65
2022/04/22 04:54:05;;;;;;;47.55;26.35;;;;;;;8.17;84.09;100730.03;5041968;28;20021;-64
2022/04/22 04:56:30;;;;;;;48.90;28.52;;;;;;;8.47;82.75;100729.47;5040221;28;20047;-65
2022/04/22 04:58:55;;;;;;;52.83;27.42;;;;;;;8.50;83.16;100729.03;5042812;28;20048;-65
2022/04/22 05:01:21;;;;;;;44.58;24.08;;;;;;;8.46;83.37;100731.34;5043609;28;20522;-65
2022/04/22 05:03:46;;;;;;;38.35;17.45;;;;;;;8.64;82.38;100738.00;5042004;28;20021;-65
2022/04/22 05:06:12;;;;;;;55.55;30.85;;;;;;;8.36;84.69;100732.84;5041960;28;20075;-65
2022/04/22 05:08:37;;;;;;;51.85;28.40;;;;;;;8.36;84.81;100732.84;5042536;28;20510;-65
2022/04/22 05:11:03;;;;;;;57.15;30.63;;;;;;;8.57;83.97;100729.84;5041027;28;20100;-64
2022/04/22 05:13:28;;;;;;;58.85;33.28;;;;;;;8.53;84.78;100732.16;5040534;28;20513;-65
2022/04/22 05:15:55;;;;;;;42.63;23.67;;;;;;;8.73;84.01;100726.56;5042712;28;20064;-65
2022/04/22 05:18:21;;;;;;;42.65;24.13;;;;;;;8.91;83.09;100727.69;5042756;28;20029;-65
2022/04/22 05:20:48;;;;;;;53.67;28.27;;;;;;;8.69;84.74;100729.97;5042331;28;20102;-65
2022/04/22 05:23:13;;;;;;;46.83;26.70;;;;;;;8.89;84.00;100729.81;5041042;28;20072;-65
2022/04/22 05:25:38;;;;;;;57.38;30.50;;;;;;;8.80;84.67;100735.56;5042520;28;20534;-65
2022/04/22 05:28:07;;;;;;;54.13;30.75;;;;;;;8.87;85.05;100737.41;5041178;28;20024;-65
2022/04/22 05:33:17;;;;;;;42.72;23.92;;;;;;;9.22;83.62;100724.88;5040744;28;20131;-65
2022/04/22 05:35:45;;;;;;;46.90;30.60;;;;;;;9.40;83.29;100723.25;5041181;28;20147;-64
2022/04/22 05:38:10;;;;;;;;;;;;;;;9.43;82.64;100731.00;5044103;28;20067;-65
2022/04/22 05:40:37;;;;;;;42.22;24.83;;;;;;;9.47;83.43;100727.59;5043206;28;19909;-65
2022/04/22 05:43:07;;;;;;;43.92;28.33;;;;;;;9.25;84.38;100729.09;5039951;28;20078;-65
2022/04/22 05:45:34;;;;;;;40.33;22.70;;;;;;;9.28;83.92;100724.00;5038680;28;20036;-65
2022/04/22 05:47:59;;;;;;;41.65;28.40;;;;;;;9.18;85.22;100734.63;5046276;28;20115;-65
2022/04/22 05:50:26;;;;;;;26.55;19.00;;;;;;;9.28;85.18;100726.75;5044648;28;20115;-65
2022/04/22 05:52:52;;;;;;;28.38;20.58;;;;;;;9.58;83.78;100729.59;5045249;28;20025;-64
2022/04/22 05:55:19;;;;;;;33.28;24.90;;;;;;;9.29;85.51;100728.41;5044826;28;20086;-65
2022/04/22 05:57:47;;;;;;;35.00;22.85;;;;;;;9.48;84.98;100736.66;5044924;28;20515;-65
2022/04/22 06:00:14;;;;;;;44.37;26.97;;;;;;;9.57;84.60;100740.78;5044726;28;20606;-65
2022/04/22 06:02:41;;;;;;;24.42;20.55;;;;;;;9.95;82.53;100734.25;5042013;28;20032;-61
2022/04/22 06:05:07;;;;;;;32.72;24.13;;;;;;;9.61;84.00;100742.00;5047427;28;20017;-65
2022/04/22 06:07:33;;;;;;;24.88;16.75;;;;;;;9.93;83.26;100739.94;5043155;28;20032;-65
2022/04/22 06:12:42;;;;;;;22.02;13.60;;;;;;;9.91;82.98;100735.78;5037000;28;20525;-65
2022/04/22 06:15:07;;;;;;;33.67;23.77;;;;;;;9.71;83.87;100728.59;5035847;28;20053;-65
2022/04/22 06:17:32;;;;;;;25.15;21.92;;;;;;;10.25;81.45;100724.19;5039002;28;20036;-65
2022/04/22 06:19:58;;;;;;;25.25;16.83;;;;;;;9.81;83.29;100739.06;5044278;28;20108;-65
2022/04/22 06:22:25;;;;;;;31.75;22.92;;;;;;;10.03;82.62;100731.19;5044336;28;20025;-65
2022/04/22 06:24:51;;;;;;;27.58;22.33;;;;;;;10.38;80.78;100725.91;5042934;28;20021;-65
2022/04/22 06:27:24;;;;;;;27.92;19.92;;;;;;;10.32;81.34;100724.91;5041395;28;20039;-65
2022/04/22 06:29:51;;;;;;;35.35;26.75;;;;;;;10.16;82.17;100728.28;5035500;28;20025;-65
2022/04/22 06:32:16;;;;;;;34.55;26.63;;;;;;;10.19;82.63;100726.97;5043839;28;20024;-65
2022/04/22 06:34:42;;;;;;;26.88;21.90;;;;;;;10.41;81.51;100716.38;5044261;28;20406;-65
2022/04/22 06:37:07;;;;;;;32.55;23.77;;;;;;;10.19;82.42;100724.22;5043539;28;20033;-67
2022/04/22 06:45:46;;;;;;;31.45;20.52;;;;;;;10.52;80.56;100721.06;5027367;28;20021;-65
2022/04/22 06:47:47;;;;;;;29.90;21.80;;;;;;;10.69;79.42;100719.31;5039924;28;20055;-66
2022/04/22 06:50:19;;;;;;;30.75;24.05;;;;;;;10.63;80.71;100721.09;5036104;28;20026;-65
2022/04/22 06:52:44;;;;;;;33.53;24.73;;;;;;;10.86;78.87;100723.09;5041292;28;20021;-66
2022/04/22 06:55:10;;;;;;;24.88;18.27;;;;;;;10.97;78.28;100724.16;5040591;28;20055;-65
2022/04/22 06:57:38;;;;;;;26.95;17.48;;;;;;;11.06;78.35;100725.50;5039053;28;20037;-66
2022/04/22 07:00:04;;;;;;;29.23;19.60;;;;;;;11.02;78.26;100728.97;5045014;28;20036;-66
2022/04/22 07:02:30;;;;;;;29.40;20.63;;;;;;;11.18;77.26;100725.50;5042330;28;20426;-66
2022/04/22 07:04:56;;;;;;;25.73;19.90;;;;;;;11.41;77.16;100721.94;5044403;28;20078;-65
2022/04/22 07:07:21;;;;;;;30.92;22.13;;;;;;;11.48;76.05;100719.06;5040035;28;20029;-66
2022/04/22 07:09:47;;;;;;;28.95;21.15;;;;;;;11.62;75.48;100724.09;5027225;28;20041;-66
2022/04/22 07:12:13;;;;;;;32.40;23.35;;;;;;;11.52;76.16;100729.34;5043399;28;20067;-66
2022/04/22 07:14:44;;;;;;;31.15;23.17;;;;;;;11.73;74.89;100729.81;5043812;28;20060;-66
2022/04/22 07:17:12;;;;;;;31.90;18.83;;;;;;;11.87;74.61;100718.34;5043953;28;20565;-67
2022/04/22 07:19:37;;;;;;;29.83;22.90;;;;;;;11.78;74.11;100717.00;5046278;28;20485;-67
2022/04/22 07:22:03;;;;;;;23.13;16.63;;;;;;;11.90;73.48;100717.84;5041357;28;20032;-68
2022/04/22 07:24:28;;;;;;;29.65;23.13;;;;;;;11.98;73.66;100704.78;5042467;28;20128;-67
2022/04/22 07:26:56;;;;;;;28.38;22.00;;;;;;;12.02;73.14;100709.56;5042969;28;20083;-67
2022/04/22 07:29:24;;;;;;;28.98;23.00;;;;;;;11.92;74.56;100707.44;5034549;28;20029;-68
2022/04/22 07:31:49;;;;;;;28.30;23.27;;;;;;;12.06;73.87;100698.88;5039597;28;20017;-67
2022/04/22 07:34:14;;;;;;;26.60;20.05;;;;;;;12.24;71.97;100697.88;5043163;28;20117;-67
2022/04/22 07:36:40;;;;;;;24.88;19.33;;;;;;;12.34;71.79;100690.66;5038454;28;20558;-66
2022/04/22 07:39:05;;;;;;;24.20;18.42;;;;;;;12.02;72.78;100692.22;5038134;28;20037;-67
2022/04/22 07:41:33;;;;;;;26.63;21.25;;;;;;;12.09;73.42;100699.25;5039413;28;20069;-68
2022/04/22 07:46:48;;;;;;;30.10;23.85;;;;;;;12.92;70.28;100686.72;5040315;28;20074;-66
2022/04/22 07:49:13;;;;;;;29.50;20.27;;;;;;;13.05;68.96;100693.81;5037587;28;20043;-67
2022/04/22 07:51:42;;;;;;;21.73;14.95;;;;;;;12.94;69.54;100698.34;5044909;28;20681;-67
2022/04/22 07:54:08;;;;;;;28.35;22.55;;;;;;;12.69;70.26;100695.97;5043623;28;20124;-67
2022/04/22 07:56:33;;;;;;;27.23;21.17;;;;;;;12.34;70.58;100693.41;5042271;28;20483;-66
2022/04/22 07:58:58;;;;;;;23.25;15.93;;;;;;;12.26;71.73;100695.69;5042149;28;20543;-66
2022/04/22 08:01:24;;;;;;;28.98;21.27;;;;;;;12.27;71.96;100705.66;5040775;28;20059;-65
2022/04/22 08:03:50;;;;;;;23.60;15.98;;;;;;;12.44;70.79;100699.09;5043339;28;20051;-67
2022/04/22 08:06:15;;;;;;;30.38;22.33;;;;;;;12.34;70.98;100700.84;5041860;28;20029;-66
2022/04/22 08:08:40;;;;;;;22.20;14.13;;;;;;;12.40;71.28;100699.84;5042372;28;20072;-66
2022/04/22 08:11:06;;;;;;;28.45;21.77;;;;;;;12.29;72.36;100695.22;5042076;28;20033;-66
2022/04/22 08:13:32;;;;;;;28.17;21.75;;;;;;;12.25;72.56;100699.53;5045080;28;20433;-66
2022/04/22 08:15:58;;;;;;;28.15;21.65;;;;;;;12.27;72.24;100694.66;5043577;28;20053;-66
2022/04/22 08:18:23;;;;;;;24.13;18.35;;;;;;;12.38;71.39;100694.59;5038979;28;20035;-66
2022/04/22 08:20:49;;;;;;;26.08;17.35;;;;;;;12.43;70.93;100696.59;5042320;28;20356;-66
2022/04/22 08:23:16;;;;;;;25.38;20.25;;;;;;;12.45;71.42;100692.50;5043580;28;20175;-66
2022/04/22 08:25:42;;;;;;;22.50;15.20;;;;;;;12.37;70.56;100690.16;5043284;28;20025;-66
2022/04/22 08:28:07;;;;;;;20.30;12.95;;;;;;;12.46;69.78;100685.91;5042842;28;20048;-66
2022/04/22 08:30:35;;;;;;;31.20;22.83;;;;;;;12.06;72.00;100679.63;5042970;28;20021;-66
2022/04/22 08:33:01;;;;;;;29.58;21.90;;;;;;;12.20;71.44;100675.50;5042805;28;20553;-66
2022/04/22 08:35:27;;;;;;;27.30;21.95;;;;;;;12.30;71.78;100680.38;5042573;28;20365;-66
2022/04/22 08:37:52;;;;;;;26.85;21.45;;;;;;;12.51;71.95;100673.31;5043446;28;20040;-66
2022/04/22 08:40:19;;;;;;;26.40;18.33;;;;;;;12.84;69.16;100680.78;5039922;28;20040;-66
2022/04/22 08:42:46;;;;;;;28.27;22.08;;;;;;;12.85;69.40;100687.97;5025659;28;20029;-65
2022/04/22 08:45:11;;;;;;;23.58;15.10;;;;;;;13.03;68.81;100678.59;5042880;28;20088;-66
2022/04/22 08:50:25;;;;;;;29.45;21.10;;;;;;;13.39;69.90;100675.38;5042514;28;20179;-66
2022/04/22 08:52:57;;;;;;;23.83;15.02;;;;;;;13.69;66.24;100665.84;5042704;28;20040;-66
2022/04/22 08:55:26;;;;;;;25.38;18.77;;;;;;;13.74;66.31;100661.22;5042363;28;20025;-66
2022/04/22 08:57:53;;;;;;;19.85;13.35;;;;;;;14.25;65.87;100650.78;5043621;28;20398;-66
2022/04/22 09:00:22;;;;;;;17.60;11.68;;;;;;;14.34;64.58;100656.66;5041946;28;20024;-66
2022/04/22 09:02:47;;;;;;;24.08;17.58;;;;;;;14.66;63.64;100653.97;5043691;28;20032;-67
2022/04/22 09:05:13;;;;;;;24.70;19.08;;;;;;;15.73;60.66;100649.19;5042828;28;20038;-66
2022/04/22 09:07:42;;;;;;;23.02;18.52;;;;;;;17.41;55.88;100650.53;5039129;28;20048;-67
2022/04/22 09:10:07;;;;;;;24.00;19.70;;;;;;;17.58;52.78;100645.50;5043430;28;20056;-67
2022/04/22 09:12:34;;;;;;;24.35;18.05;;;;;;;18.34;51.68;100639.59;5042864;28;20425;-68
2022/04/22 09:15:00;;;;;;;24.35;15.55;;;;;;;19.52;48.16;100639.47;5041257;28;20470;-67
2022/04/22 09:17:27;;;;;;;21.23;16.58;;;;;;;19.81;47.50;100638.59;5043407;28;20017;-67
2022/04/22 09:19:55;;;;;;;24.65;18.73;;;;;;;17.70;50.78;100639.63;5043185;28;20027;-65
2022/04/22 09:22:22;;;;;;;17.60;14.15;;;;;;;16.90;53.16;100643.13;5046800;28;20116;-66
2022/04/22 09:24:50;;;;;;;21.03;16.97;;;;;;;16.33;53.56;100628.34;5044256;28;20117;-67
2022/04/22 09:27:16;;;;;;;19.63;16.58;;;;;;;15.12;56.97;100639.69;5046060;28;20021;-67
2022/04/22 09:29:55;;;;;;;22.92;15.80;;;;;;;15.23;57.36;100633.94;5046345;28;20021;-66
2022/04/22 09:32:24;;;;;;;21.25;16.30;;;;;;;16.17;56.95;100628.56;5047232;28;20017;-66
2022/04/22 09:34:50;;;;;;;21.38;16.85;;;;;;;17.75;51.46;100623.00;5045052;28;20535;-66
2022/04/22 09:42:54;;;;;;;16.63;13.82;;;;;;;16.21;53.59;100613.91;5042118;28;20174;-66
2022/04/22 09:45:19;;;;;;;21.63;16.30;;;;;;;15.54;55.19;100620.28;5046021;28;20812;-66
2022/04/22 09:47:57;;;;;;;22.83;17.40;;;;;;;15.24;56.25;100610.72;5050366;28;20029;-67
2022/04/22 09:50:40;;;;;;;21.17;16.27;;;;;;;15.61;54.72;100614.50;5051185;28;20050;-66
2022/04/22 09:53:06;;;;;;;20.85;17.10;;;;;;;15.39;55.53;100604.44;5068118;28;20020;-66
2022/04/22 09:55:35;;;;;;;20.15;15.85;;;;;;;14.70;58.13;100610.91;5049997;28;20028;-67
2022/04/22 09:58:00;;;;;;;19.95;15.60;;;;;;;15.11;57.20;100607.59;5046189;28;20025;-65
2022/04/22 10:00:29;;;;;;;17.02;11.63;;;;;;;16.77;51.90;100593.75;5045718;28;20453;-65
2022/04/22 10:02:54;;;;;;;20.73;15.30;;;;;;;16.38;52.62;100590.66;5046914;28;20025;-65
2022/04/22 10:05:23;;;;;;;19.65;16.08;;;;;;;15.84;54.48;100591.91;5044367;28;20037;-66
2022/04/22 10:07:51;;;;;;;;;;;;;;;16.13;54.33;100583.16;5057349;28;20447;-66
2022/04/22 10:10:27;;;;;;;13.00;8.45;;;;;;;16.56;51.57;100593.69;5044312;28;20353;-65
2022/04/22 10:12:55;;;;;;;17.80;14.02;;;;;;;16.08;52.47;100593.09;5047819;28;20025;-66
2022/04/22 10:15:24;;;;;;;18.42;14.85;;;;;;;15.60;53.21;100596.22;5046310;28;20088;-66
2022/04/22 10:17:51;;;;;;;21.35;16.58;;;;;;;15.54;54.52;100584.28;5047299;28;20384;-66
2022/04/22 10:20:17;;;;;;;19.05;14.93;;;;;;;16.02;53.28;100585.88;5046592;28;20029;-64
2022/04/22 10:22:42;;;;;;;19.80;15.25;;;;;;;16.02;51.26;100580.34;5048309;28;20124;-65
2022/04/22 10:25:09;;;;;;;20.60;15.65;;;;;;;15.79;53.72;100583.59;5046145;28;20028;-66
2022/04/22 10:27:36;;;;;;;16.23;13.88;;;;;;;16.90;49.92;100575.72;5048061;28;20094;-65
2022/04/22 10:30:02;;;;;;;21.30;16.40;;;;;;;16.47;50.79;100584.28;5049402;28;20556;-66
2022/04/22 10:32:28;;;;;;;18.92;15.15;;;;;;;15.96;51.17;100578.66;5044348;28;20025;-65
2022/04/22 10:34:58;;;;;;;17.83;14.63;;;;;;;15.62;52.81;100571.88;5046666;28;20095;-66
2022/04/22 10:37:25;;;;;;;17.83;13.85;;;;;;;15.99;52.25;100578.13;5038049;28;20044;-66
2022/04/22 10:39:52;;;;;;;12.73;9.32;;;;;;;15.95;52.06;100576.16;5046796;28;20348;-66
2022/04/22 10:42:18;;;;;;;17.70;13.80;;;;;;;15.46;53.14;100584.81;5041944;28;20021;-66
2022/04/22 10:47:57;;;;;;;20.30;15.77;;;;;;;14.58;56.68;100579.81;5032830;28;20048;-66
2022/04/22 10:50:29;;;;;;;19.40;16.48;;;;;;;14.31;56.35;100574.31;5042241;28;20439;-66
2022/04/22 10:53:07;;;;;;;21.83;16.33;;;;;;;14.26;57.82;100574.25;5030474;28;20025;-66
2022/04/22 10:55:40;;;;;;;19.88;17.42;;;;;;;14.30;57.68;100569.88;5026931;28;20082;-67
2022/04/22 10:58:17;;;;;;;22.25;15.70;;;;;;;14.45;57.02;100564.50;5041989;28;20487;-66
2022/04/22 11:00:53;;;;;;;23.80;18.33;;;;;;;14.39;57.29;100581.28;5037410;28;20831;-66
2022/04/22 11:03:27;;;;;;;23.15;19.55;;;;;;;15.16;55.01;100560.59;5043221;28;20291;-66
2022/04/22 11:05:56;;;;;;;18.95;13.52;;;;;;;14.66;56.95;100565.53;5035796;28;20037;-66
2022/04/22 11:08:26;;;;;;;22.30;18.25;;;;;;;14.04;59.64;100574.34;5041674;28;20037;-66
2022/04/22 11:10:51;;;;;;;20.73;16.45;;;;;;;14.60;57.50;100551.91;5043322;28;20694;-66
2022/04/22 11:13:40;;;;;;;23.73;18.30;;;;;;;13.99;60.03;100568.75;5042301;28;20040;-66
2022/04/22 11:16:06;;;;;;;22.92;15.63;;;;;;;14.09;59.20;100566.09;5038200;28;20056;-67
2022/04/22 11:18:33;;;;;;;23.92;17.67;;;;;;;14.19;59.52;100562.56;5042665;28;20082;-67
2022/04/22 11:21:19;;;;;;;21.33;18.45;;;;;;;14.57;58.53;100566.28;5039335;28;20029;-67
2022/04/22 11:23:45;;;;;;;22.27;16.20;;;;;;;14.28;58.56;100564.59;5029054;28;20131;-66
2022/04/22 11:26:15;;;;;;;19.83;16.23;;;;;;;14.34;58.40;100567.41;5043440;28;20032;-66
2022/04/22 11:28:42;;;;;;;20.77;15.98;;;;;;;14.28;59.18;100559.06;5043915;28;20061;-67
2022/04/22 11:31:11;;;;;;;24.92;18.63;;;;;;;14.16;60.39;100560.34;5042320;28;20025;-68
2022/04/22 11:33:56;;;;;;;25.70;19.30;;;;;;;14.31;59.94;100556.91;5044832;28;20360;-67
2022/04/22 11:36:25;;;;;;;17.98;13.95;;;;;;;14.33;58.77;100554.69;5042600;28;20124;-68
2022/04/22 11:38:52;;;;;;;19.45;15.27;;;;;;;14.23;59.55;100558.19;5043120;28;20487;-68
2022/04/22 11:41:18;;;;;;;27.95;17.83;;;;;;;13.98;59.26;100553.25;5043518;28;20025;-68
2022/04/22 11:43:44;;;;;;;26.42;17.25;;;;;;;13.93;60.25;100550.44;5027310;28;20413;-67
2022/04/22 11:46:12;;;;;;;21.80;15.85;;;;;;;14.10;60.28;100561.41;5043873;28;20051;-67
2022/04/22 11:48:45;;;;;;;20.63;16.10;;;;;;;14.46;59.25;100559.81;5043281;28;20028;-67
2022/04/22 11:51:10;;;;;;;20.90;17.02;;;;;;;14.41;58.32;100551.47;5038826;28;20492;-67
2022/04/22 11:53:36;;;;;;;20.20;16.42;;;;;;;14.43;58.82;100561.16;5044005;28;20035;-68
2022/04/22 11:56:02;;;;;;;22.60;16.73;;;;;;;14.49;59.01;100546.28;5041763;28;20118;-68
2022/04/22 11:58:27;;;;;;;21.52;16.83;;;;;;;14.63;59.35;100543.09;5044575;28;20106;-67
2022/04/22 12:06:23;;;;;;;22.00;16.33;;;;;;;14.63;57.26;100532.03;5040463;28;20084;-67
2022/04/22 12:09:00;;;;;;;20.42;14.90;;;;;;;14.65;57.25;100532.59;5038703;28;20029;-68
2022/04/22 12:11:26;;;;;;;19.52;15.68;;;;;;;14.63;57.22;100524.56;5052044;28;20036;-65
2022/04/22 12:13:53;;;;;;;18.80;15.20;;;;;;;14.76;57.98;100532.44;5040202;28;20029;-65
2022/04/22 12:16:22;;;;;;;16.48;12.23;;;;;;;15.20;54.82;100525.75;5042856;28;20339;-66